Time;durP1;ratioP1;P1;durP2;ratioP2;P2;SDS_P1;SDS_P2;PMS_P1;PMS_P2;Temp;Humidity;BMP_temperature;BMP_pressure;BME280_temperature;BME280_humidity;BME280_pressure;Samples;Min_cycle;Max_cycle;Signal;HPM_P1;HPM_P2
2021/03/23 00:02:03;;;;;;;127.05;104.22;;;20.70;42.80;;;;;;4372236;60;21080;-28
2021/03/23 00:07:05;;;;;;;127.12;101.57;;;20.70;43.30;;;;;;4371658;60;21127;-23
2021/03/23 00:12:07;;;;;;;125.55;103.05;;;20.60;42.60;;;;;;4355239;60;21541;-31
2021/03/23 00:17:07;;;;;;;122.40;99.20;;;20.60;42.60;;;;;;4397834;60;21040;-21
2021/03/23 00:22:08;;;;;;;122.35;99.87;;;20.70;42.60;;;;;;4337835;60;21529;-27
2021/03/23 00:27:12;;;;;;;123.53;101.25;;;20.70;42.60;;;;;;4343714;60;21112;-26
2021/03/23 00:32:13;;;;;;;122.85;99.97;;;20.70;42.60;;;;;;4355500;60;21105;-31
2021/03/23 00:37:18;;;;;;;124.03;101.22;;;20.60;42.50;;;;;;4340688;60;21048;-26
2021/03/23 00:42:20;;;;;;;123.85;100.00;;;20.60;42.50;;;;;;4337534;64;21100;-26
2021/03/23 00:47:21;;;;;;;120.00;97.55;;;20.60;42.40;;;;;;4344135;60;21076;-25
2021/03/23 00:52:22;;;;;;;122.25;99.75;;;20.60;42.40;;;;;;4340485;60;21630;-24
2021/03/23 00:57:23;;;;;;;125.45;100.53;;;20.60;42.40;;;;;;4371693;60;21119;-21
2021/03/23 01:02:24;;;;;;;123.10;97.57;;;20.60;42.30;;;;;;4337559;64;21610;-19
2021/03/23 01:07:25;;;;;;;125.40;101.03;;;20.60;42.30;;;;;;4355964;60;21060;-22
2021/03/23 01:12:26;;;;;;;123.03;97.72;;;20.60;42.30;;;;;;4358220;60;21534;-15
2021/03/23 01:17:28;;;;;;;118.68;97.60;;;20.60;42.30;;;;;;4337424;64;21127;-16
2021/03/23 01:22:29;;;;;;;124.18;97.97;;;20.60;42.20;;;;;;4358966;60;21075;-25
2021/03/23 01:27:30;;;;;;;121.07;95.47;;;20.60;42.20;;;;;;4376254;60;21591;-20
2021/03/23 01:32:31;;;;;;;118.68;95.32;;;20.60;42.20;;;;;;4355373;60;21052;-16
2021/03/23 01:37:32;;;;;;;119.18;95.95;;;20.60;42.10;;;;;;4353049;60;21063;-12
2021/03/23 01:42:46;;;;;;;117.78;94.45;;;20.50;42.10;;;;;;4343536;60;21056;-15
2021/03/23 01:47:52;;;;;;;124.30;99.07;;;20.60;42.00;;;;;;4359146;60;21167;-31
2021/03/23 01:53:08;;;;;;;118.85;95.35;;;20.60;42.00;;;;;;4359872;60;21107;-29
2021/03/23 01:58:10;;;;;;;120.97;94.50;;;20.50;41.90;;;;;;4395223;60;21546;-22
2021/03/23 02:03:15;;;;;;;119.82;96.05;;;20.50;41.90;;;;;;4375648;60;21048;-22
2021/03/23 02:08:17;;;;;;;123.97;96.20;;;20.50;41.90;;;;;;4392429;60;21636;-31
2021/03/23 02:13:18;;;;;;;120.03;94.68;;;20.50;41.80;;;;;;4338757;60;21521;-26
2021/03/23 02:18:25;;;;;;;122.55;97.78;;;20.50;41.80;;;;;;4350617;60;21083;-31
2021/03/23 02:23:31;;;;;;;122.00;95.10;;;20.50;41.80;;;;;;4344891;60;21131;-31
2021/03/23 02:28:59;;;;;;;121.62;95.00;;;20.50;41.70;;;;;;4352204;60;21087;-12
2021/03/23 02:34:02;;;;;;;118.57;94.18;;;20.50;41.70;;;;;;4355278;60;21047;-32
2021/03/23 02:39:05;;;;;;;118.95;93.15;;;20.50;41.70;;;;;;4360573;60;21103;-18
2021/03/23 02:44:07;;;;;;;119.53;94.70;;;20.50;41.70;;;;;;4358351;60;21067;-32
2021/03/23 02:49:09;;;;;;;122.50;95.10;;;20.50;41.60;;;;;;4344787;60;21065;-30
2021/03/23 02:54:10;;;;;;;116.32;93.72;;;20.50;41.60;;;;;;4350965;60;21103;-20
2021/03/23 02:59:12;;;;;;;115.30;91.40;;;20.50;41.60;;;;;;4356555;60;21087;-20
2021/03/23 03:04:13;;;;;;;116.80;94.05;;;20.40;41.50;;;;;;4355844;60;21047;-19
2021/03/23 03:09:14;;;;;;;118.22;91.50;;;20.40;41.40;;;;;;4336398;64;21235;-13
2021/03/23 03:14:15;;;;;;;117.62;90.95;;;20.40;41.50;;;;;;4355537;60;21634;-17
2021/03/23 03:19:18;;;;;;;115.50;88.45;;;20.40;41.40;;;;;;4356862;60;21075;-21
2021/03/23 03:24:19;;;;;;;116.75;91.28;;;20.40;42.00;;;;;;4358858;60;21643;-23
2021/03/23 03:29:19;;;;;;;115.57;89.22;;;20.40;41.30;;;;;;4347107;60;21077;-30
2021/03/23 03:34:21;;;;;;;114.32;88.85;;;20.40;41.30;;;;;;4354786;60;21078;-21
2021/03/23 03:39:22;;;;;;;114.62;89.13;;;20.40;41.30;;;;;;4384241;60;21589;-29
2021/03/23 03:44:23;;;;;;;115.62;89.47;;;20.40;41.30;;;;;;4337413;60;21104;-26
2021/03/23 03:49:24;;;;;;;109.78;86.50;;;20.40;41.20;;;;;;4340587;60;21589;-30
2021/03/23 03:54:25;;;;;;;109.05;84.13;;;20.40;41.20;;;;;;4354332;60;21190;-22
2021/03/23 03:59:26;;;;;;;114.12;89.72;;;20.40;41.10;;;;;;4349140;60;21569;-19
2021/03/23 04:04:28;;;;;;;108.87;84.03;;;20.40;41.10;;;;;;4337248;64;21171;-14
2021/03/23 04:09:29;;;;;;;107.97;84.28;;;20.40;41.10;;;;;;4355358;60;21092;-24
2021/03/23 04:14:30;;;;;;;108.28;85.15;;;20.40;41.00;;;;;;4355270;60;21068;-20
2021/03/23 04:19:31;;;;;;;105.82;82.72;;;20.40;41.60;;;;;;4359101;60;21103;-14
2021/03/23 04:24:32;;;;;;;105.15;81.95;;;20.40;41.00;;;;;;4355448;60;21139;-16
2021/03/23 04:29:34;;;;;;;106.00;84.70;;;20.40;40.90;;;;;;4357271;60;21622;-12
2021/03/23 04:34:34;;;;;;;105.18;82.00;;;20.30;40.80;;;;;;4377120;60;21058;-14
2021/03/23 04:39:35;;;;;;;103.47;79.65;;;20.30;40.80;;;;;;4337414;64;21147;-15
2021/03/23 04:44:38;;;;;;;105.55;82.10;;;20.30;40.70;;;;;;4358864;60;21085;-14
2021/03/23 04:49:41;;;;;;;104.38;80.05;;;20.30;40.80;;;;;;4337675;60;21117;-27
2021/03/23 04:54:42;;;;;;;101.12;78.53;;;20.30;40.70;;;;;;4351785;60;21598;-29
2021/03/23 04:59:42;;;;;;;98.78;76.30;;;20.30;40.70;;;;;;4367647;60;21133;-22
2021/03/23 05:04:43;;;;;;;101.25;78.53;;;20.30;40.70;;;;;;4369774;60;21530;-31
2021/03/23 05:09:44;;;;;;;97.32;76.25;;;20.30;40.70;;;;;;4363203;60;21138;-23
2021/03/23 05:14:45;;;;;;;94.13;75.12;;;20.30;40.70;;;;;;4355754;60;21521;-25
2021/03/23 05:19:46;;;;;;;98.20;75.60;;;20.30;40.70;;;;;;4354956;60;21071;-22
2021/03/23 05:24:47;;;;;;;97.05;74.85;;;20.30;40.80;;;;;;4339420;60;21930;-23
2021/03/23 05:29:48;;;;;;;93.45;74.60;;;20.30;40.70;;;;;;4355548;60;21143;-17
2021/03/23 05:34:50;;;;;;;89.90;71.57;;;20.30;40.70;;;;;;4340584;60;21112;-14
2021/03/23 05:39:51;;;;;;;94.03;75.10;;;20.30;40.70;;;;;;4356216;60;21079;-18
2021/03/23 05:45:42;;;;;;;93.97;72.47;;;20.30;40.70;;;;;;4355782;60;21080;-13
2021/03/23 05:54:28;;;;;;;88.78;69.37;;;20.30;40.70;;;;;;4337154;64;21090;-32
2021/03/23 06:01:40;;;;;;;88.37;69.45;;;20.30;40.70;;;;;;4348268;60;21056;-33
2021/03/23 06:06:49;;;;;;;86.85;67.30;;;20.30;41.00;;;;;;4371482;60;21120;-31
2021/03/23 06:11:56;;;;;;;87.37;67.22;;;20.20;41.10;;;;;;4398686;60;21052;-26
2021/03/23 06:18:17;;;;;;;89.47;69.50;;;20.30;41.20;;;;;;4389498;60;21124;-31
2021/03/23 06:23:49;;;;;;;89.03;68.30;;;20.30;41.30;;;;;;4377111;60;21101;-30
2021/03/23 06:29:36;;;;;;;87.75;68.82;;;20.20;41.20;;;;;;4347740;60;21076;-28
2021/03/23 06:34:38;;;;;;;84.45;66.75;;;20.20;41.20;;;;;;4353147;60;21107;-31
2021/03/23 06:39:39;;;;;;;85.53;66.03;;;20.20;41.20;;;;;;4357234;60;21537;-32
2021/03/23 06:44:42;;;;;;;89.45;68.75;;;20.20;41.20;;;;;;4338146;60;21097;-29
2021/03/23 06:49:43;;;;;;;86.40;67.30;;;20.20;41.20;;;;;;4336753;64;21130;-32
2021/03/23 06:55:02;;;;;;;88.15;66.45;;;20.20;41.10;;;;;;4368700;60;21560;-28
2021/03/23 07:00:26;;;;;;;85.18;67.18;;;20.20;41.10;;;;;;4374267;60;21097;-32
2021/03/23 07:05:35;;;;;;;89.70;68.65;;;20.20;41.10;;;;;;4378206;60;21407;-15
2021/03/23 07:10:43;;;;;;;86.10;67.68;;;20.20;41.00;;;;;;4376267;60;21553;-30
2021/03/23 07:15:56;;;;;;;85.35;66.57;;;20.30;41.10;;;;;;4365551;60;21541;-30
2021/03/23 07:21:04;;;;;;;89.78;68.25;;;20.20;41.00;;;;;;4355808;60;21124;-15
2021/03/23 07:29:38;;;;;;;93.78;71.32;;;20.20;41.00;;;;;;4369162;60;21068;-21
2021/03/23 07:35:48;;;;;;;90.18;70.75;;;20.20;40.90;;;;;;4346142;60;21636;-27
2021/03/23 07:40:52;;;;;;;91.12;69.55;;;20.20;40.90;;;;;;4376968;60;21132;-29
2021/03/23 07:46:56;;;;;;;90.15;68.32;;;20.20;40.90;;;;;;4356070;60;21779;-22
2021/03/23 07:52:30;;;;;;;94.25;68.87;;;20.20;40.90;;;;;;4352069;60;21630;-13
2021/03/23 07:58:40;;;;;;;90.20;67.87;;;20.20;40.80;;;;;;4389782;60;21516;-23
2021/03/23 08:06:57;;;;;;;91.87;69.25;;;20.20;40.80;;;;;;4337753;61;21529;-21
2021/03/23 08:14:53;;;;;;;93.18;69.97;;;20.20;40.80;;;;;;4335673;64;21626;-19
2021/03/23 08:21:41;;;;;;;94.97;72.37;;;20.30;41.40;;;;;;4346798;60;21060;-29
2021/03/23 08:28:23;;;;;;;96.00;72.50;;;20.40;41.70;;;;;;4339684;60;21124;-14
2021/03/23 08:33:53;;;;;;;94.43;71.20;;;20.40;41.90;;;;;;4339685;60;21566;-20
2021/03/23 08:42:09;;;;;;;96.00;72.70;;;20.50;42.20;;;;;;4345647;60;21128;-21
2021/03/23 08:47:37;;;;;;;95.95;72.43;;;20.50;42.30;;;;;;4353383;60;21065;-19
2021/03/23 08:52:43;;;;;;;96.03;72.75;;;20.60;42.80;;;;;;4350647;60;21139;-27
2021/03/23 08:57:49;;;;;;;101.50;77.50;;;20.60;43.00;;;;;;4352696;60;21051;-20
2021/03/23 09:02:50;;;;;;;99.55;74.50;;;20.60;43.00;;;;;;4366265;60;21521;-25
2021/03/23 09:08:15;;;;;;;110.95;83.07;;;20.60;43.20;;;;;;4361966;60;21233;-19
2021/03/23 09:15:17;;;;;;;105.55;79.70;;;20.60;43.50;;;;;;4381423;60;21060;-13
2021/03/23 09:23:52;;;;;;;101.32;76.85;;;20.70;43.20;;;;;;4337015;60;21184;-21
2021/03/23 09:28:58;;;;;;;105.15;79.78;;;20.70;43.00;;;;;;4359557;60;21541;-13
2021/03/23 09:33:59;;;;;;;106.10;80.07;;;20.60;42.80;;;;;;4398970;60;21645;-26
2021/03/23 09:42:35;;;;;;;111.93;81.95;;;20.70;42.80;;;;;;4335897;60;21726;-23
2021/03/23 09:47:41;;;;;;;109.35;81.20;;;20.70;43.00;;;;;;4339565;60;21736;-25
2021/03/23 09:52:42;;;;;;;108.80;80.50;;;20.70;43.10;;;;;;4336303;64;21622;-30
2021/03/23 09:57:55;;;;;;;109.28;81.28;;;20.80;43.40;;;;;;4336559;64;21119;-23
2021/03/23 10:02:57;;;;;;;112.82;84.18;;;20.80;43.60;;;;;;4369951;60;21629;-15
2021/03/23 10:08:14;;;;;;;110.05;81.57;;;20.90;44.10;;;;;;4336776;60;21123;-25
2021/03/23 10:13:31;;;;;;;112.72;83.37;;;21.10;44.00;;;;;;4359337;60;21058;-26
2021/03/23 10:18:41;;;;;;;112.78;85.35;;;21.20;44.00;;;;;;4336654;64;21730;-14
2021/03/23 10:23:48;;;;;;;114.35;86.37;;;21.30;44.10;;;;;;4363483;60;21084;-27
2021/03/23 10:28:56;;;;;;;117.05;87.95;;;21.50;44.20;;;;;;4338034;60;21096;-26
2021/03/23 10:34:18;;;;;;;117.10;89.68;;;21.50;44.20;;;;;;4351654;60;22270;-32
2021/03/23 10:39:56;;;;;;;114.97;89.55;;;21.60;44.20;;;;;;4351898;60;21593;-31
2021/03/23 10:45:28;;;;;;;119.47;91.00;;;21.70;44.20;;;;;;4337412;60;21115;-27
2021/03/23 10:50:32;;;;;;;124.28;91.28;;;21.80;44.30;;;;;;4372388;60;21108;-29
2021/03/23 10:55:36;;;;;;;122.05;92.80;;;21.90;44.30;;;;;;4336550;64;21565;-17
2021/03/23 11:00:39;;;;;;;123.20;92.07;;;22.00;44.40;;;;;;4361437;60;21097;-15
2021/03/23 11:05:48;;;;;;;121.43;92.80;;;22.00;44.40;;;;;;4377613;60;21959;-21
2021/03/23 11:10:49;;;;;;;119.78;91.55;;;22.10;44.70;;;;;;4360638;60;21079;-31
2021/03/23 11:15:52;;;;;;;119.53;93.03;;;22.10;44.20;;;;;;4339914;60;21187;-30
2021/03/23 11:20:54;;;;;;;119.07;92.90;;;22.20;44.80;;;;;;4349317;60;21059;-30
2021/03/23 11:25:55;;;;;;;124.40;93.12;;;22.20;44.90;;;;;;4335647;64;21205;-15
2021/03/23 11:30:57;;;;;;;118.30;93.55;;;22.30;45.10;;;;;;4351819;60;21079;-25
2021/03/23 11:35:59;;;;;;;117.95;91.90;;;22.30;45.00;;;;;;4360045;60;21145;-31
2021/03/23 11:41:02;;;;;;;117.85;95.35;;;22.30;45.00;;;;;;4372046;60;21071;-22
2021/03/23 11:46:17;;;;;;;124.45;95.53;;;22.40;45.00;;;;;;4352046;60;21176;-22
2021/03/23 11:51:23;;;;;;;122.20;94.25;;;22.40;45.00;;;;;;4366394;60;21669;-20
2021/03/23 11:56:24;;;;;;;123.57;92.45;;;22.50;45.10;;;;;;4357370;60;22513;-29
2021/03/23 12:01:26;;;;;;;119.65;94.37;;;22.50;45.10;;;;;;4371215;60;21103;-30
2021/03/23 12:06:41;;;;;;;118.22;93.45;;;22.60;45.20;;;;;;4348755;60;21088;-28
2021/03/23 12:13:34;;;;;;;119.82;91.53;;;22.60;45.30;;;;;;4369458;60;21750;-26
2021/03/23 12:18:35;;;;;;;117.37;92.85;;;22.60;45.40;;;;;;4375479;60;21178;-27
2021/03/23 12:23:36;;;;;;;120.10;94.57;;;22.70;45.40;;;;;;4336563;60;21080;-20
2021/03/23 12:28:40;;;;;;;111.47;90.12;;;22.70;45.40;;;;;;4335869;64;21402;-25
2021/03/23 12:33:41;;;;;;;121.60;93.32;;;22.70;45.30;;;;;;4339664;60;21634;-19
2021/03/23 12:38:45;;;;;;;110.37;89.95;;;22.80;45.30;;;;;;4339776;60;21522;-31
2021/03/23 12:43:50;;;;;;;116.62;91.97;;;22.80;45.30;;;;;;4343442;60;21574;-29
2021/03/23 12:48:51;;;;;;;114.60;92.43;;;22.80;45.30;;;;;;4336797;64;21627;-24
2021/03/23 12:53:52;;;;;;;117.45;90.15;;;22.80;45.20;;;;;;4358755;60;21103;-16
2021/03/23 12:58:53;;;;;;;114.60;87.90;;;22.80;45.20;;;;;;4359572;60;21678;-24
2021/03/23 13:03:54;;;;;;;113.80;90.68;;;22.90;45.00;;;;;;4339963;60;21131;-27
2021/03/23 13:08:57;;;;;;;115.62;90.18;;;22.80;44.80;;;;;;4342604;60;21608;-22
2021/03/23 13:14:01;;;;;;;114.00;88.10;;;22.80;44.50;;;;;;4390363;60;21557;-23
2021/03/23 13:19:02;;;;;;;109.78;87.93;;;22.80;44.30;;;;;;4348133;60;21586;-16
2021/03/23 13:24:17;;;;;;;109.63;86.65;;;22.80;43.90;;;;;;4356658;60;21151;-28
2021/03/23 13:29:19;;;;;;;112.18;84.85;;;22.80;43.70;;;;;;4337567;60;21095;-32
2021/03/23 13:34:27;;;;;;;106.72;83.90;;;22.80;43.70;;;;;;4382059;60;21187;-29
2021/03/23 13:39:38;;;;;;;105.93;84.22;;;22.70;44.10;;;;;;4336714;64;21127;-23
2021/03/23 13:44:58;;;;;;;106.15;84.30;;;22.70;43.60;;;;;;4347692;60;21526;-28
2021/03/23 13:50:02;;;;;;;99.78;80.80;;;22.70;43.50;;;;;;4360660;60;21067;-25
2021/03/23 13:55:26;;;;;;;102.03;80.12;;;22.60;43.30;;;;;;4338590;60;21582;-29
2021/03/23 14:00:36;;;;;;;107.95;82.28;;;22.50;43.40;;;;;;4364504;60;21095;-18
2021/03/23 14:05:37;;;;;;;101.22;81.43;;;22.50;43.60;;;;;;4358622;60;21087;-23
2021/03/23 14:10:38;;;;;;;105.82;79.82;;;22.40;43.70;;;;;;4343480;60;21171;-25
2021/03/23 14:15:40;;;;;;;105.30;81.60;;;22.40;43.80;;;;;;4365627;60;21149;-30
2021/03/23 14:20:41;;;;;;;99.53;78.35;;;22.30;43.80;;;;;;4368098;60;21091;-30
2021/03/23 14:25:50;;;;;;;103.45;78.78;;;22.30;44.20;;;;;;4351743;60;21087;-25
2021/03/23 14:30:52;;;;;;;103.03;81.47;;;22.30;44.10;;;;;;4387515;60;21071;-32
2021/03/23 14:35:55;;;;;;;98.85;77.68;;;22.20;44.20;;;;;;4362082;60;21268;-28
2021/03/23 14:41:01;;;;;;;95.80;76.15;;;22.20;44.30;;;;;;4345510;60;21448;-18
2021/03/23 14:46:02;;;;;;;100.57;77.85;;;22.20;44.50;;;;;;4350730;60;21155;-23
2021/03/23 14:51:03;;;;;;;95.78;74.43;;;22.20;44.60;;;;;;4341037;60;21119;-30
2021/03/23 14:56:06;;;;;;;99.50;76.43;;;22.20;44.70;;;;;;4352733;60;21087;-29
2021/03/23 15:01:06;;;;;;;89.70;73.15;;;22.20;44.90;;;;;;4354739;60;21463;-26
2021/03/23 15:06:10;;;;;;;94.78;73.47;;;22.20;45.00;;;;;;4369460;60;21156;-29
2021/03/23 15:11:17;;;;;;;94.43;74.15;;;22.10;45.10;;;;;;4370057;60;21565;-29
2021/03/23 15:16:19;;;;;;;94.18;74.00;;;22.10;45.90;;;;;;4384259;60;21079;-24
2021/03/23 15:22:26;;;;;;;90.72;73.80;;;22.10;45.40;;;;;;4336754;62;21083;-30
2021/03/23 15:27:27;;;;;;;90.20;70.93;;;22.10;45.70;;;;;;4375530;60;21510;-20
2021/03/23 15:32:27;;;;;;;93.37;73.22;;;22.10;45.90;;;;;;4352613;60;21051;-30
2021/03/23 15:37:28;;;;;;;90.70;72.28;;;22.10;45.90;;;;;;4376533;60;21638;-23
2021/03/23 15:42:29;;;;;;;87.90;71.10;;;22.10;46.20;;;;;;4354892;60;21607;-29
2021/03/23 15:47:30;;;;;;;88.45;71.47;;;22.10;46.20;;;;;;4345644;60;21141;-29
2021/03/23 15:52:31;;;;;;;89.97;70.30;;;22.10;46.30;;;;;;4357691;60;21091;-15
2021/03/23 15:57:32;;;;;;;88.37;70.57;;;22.10;46.50;;;;;;4348111;60;21083;-23
2021/03/23 16:02:33;;;;;;;86.97;71.18;;;22.10;46.40;;;;;;4337428;60;21055;-24
2021/03/23 16:07:34;;;;;;;89.87;72.03;;;22.10;46.60;;;;;;4367941;60;21542;-18
2021/03/23 16:12:35;;;;;;;90.53;72.53;;;22.10;46.60;;;;;;4361722;60;21087;-30
2021/03/23 16:17:47;;;;;;;373.87;331.02;;;22.10;46.60;;;;;;4337916;60;21068;-26
2021/03/23 16:22:49;;;;;;;381.90;336.25;;;22.00;46.80;;;;;;4356441;60;21120;-28
2021/03/23 16:27:50;;;;;;;358.23;314.30;;;21.90;47.20;;;;;;4351995;60;21095;-22
2021/03/23 16:32:53;;;;;;;350.52;311.87;;;21.90;47.20;;;;;;4346476;60;21060;-32
2021/03/23 16:37:58;;;;;;;349.48;310.98;;;21.90;47.10;;;;;;4344077;60;21061;-32
2021/03/23 16:43:04;;;;;;;341.02;302.55;;;21.80;47.00;;;;;;4347281;60;21043;-32
2021/03/23 16:48:06;;;;;;;331.42;295.27;;;21.80;47.00;;;;;;4374905;60;21067;-24
2021/03/23 16:53:27;;;;;;;328.52;292.52;;;21.70;46.90;;;;;;4349720;60;21200;-25
2021/03/23 16:58:28;;;;;;;323.23;287.60;;;21.60;46.70;;;;;;4339277;60;21598;-17
2021/03/23 17:03:29;;;;;;;318.30;283.33;;;21.60;46.60;;;;;;4345782;60;21088;-29
2021/03/23 17:08:30;;;;;;;317.30;282.42;;;21.60;46.50;;;;;;4347238;60;21156;-28
2021/03/23 17:13:31;;;;;;;311.15;277.20;;;21.50;46.40;;;;;;4339068;60;21204;-15
2021/03/23 17:18:32;;;;;;;312.70;278.35;;;21.50;46.30;;;;;;4344550;60;21191;-26
2021/03/23 17:23:34;;;;;;;300.27;267.15;;;21.40;46.30;;;;;;4357858;60;21091;-22
2021/03/23 17:28:36;;;;;;;296.73;264.02;;;21.40;46.20;;;;;;4338411;60;21566;-18
2021/03/23 17:33:42;;;;;;;290.35;258.55;;;21.40;46.10;;;;;;4342413;60;21071;-27
2021/03/23 17:38:46;;;;;;;296.15;264.05;;;21.40;46.10;;;;;;4347421;60;21609;-22
2021/03/23 17:43:49;;;;;;;297.50;264.75;;;21.30;45.90;;;;;;4336519;64;21172;-19
2021/03/23 17:48:50;;;;;;;289.52;257.62;;;21.30;45.80;;;;;;4336692;64;21200;-21
2021/03/23 17:53:51;;;;;;;285.42;254.10;;;21.30;45.80;;;;;;4335816;60;21103;-15
2021/03/23 17:58:52;;;;;;;282.05;251.50;;;21.30;45.70;;;;;;4345825;60;21569;-15
2021/03/23 18:03:53;;;;;;;277.85;246.73;;;21.30;45.70;;;;;;4340833;60;21192;-21
2021/03/23 18:08:54;;;;;;;270.98;241.40;;;21.30;45.70;;;;;;4355508;60;21147;-13
2021/03/23 18:13:55;;;;;;;273.08;243.12;;;21.20;45.50;;;;;;4348778;60;21087;-12
2021/03/23 18:18:57;;;;;;;274.73;244.50;;;21.20;46.10;;;;;;4402621;60;21079;-14
2021/03/23 18:24:00;;;;;;;265.60;235.50;;;21.20;45.40;;;;;;4338902;60;21075;-29
2021/03/23 18:29:02;;;;;;;268.25;238.93;;;21.20;45.40;;;;;;4337634;60;21554;-29
2021/03/23 18:34:05;;;;;;;258.75;230.43;;;21.20;45.40;;;;;;4352951;60;21203;-29
2021/03/23 18:39:06;;;;;;;261.65;233.18;;;21.20;45.30;;;;;;4347028;60;21653;-26
2021/03/23 18:44:07;;;;;;;256.60;228.35;;;21.10;45.20;;;;;;4350283;60;21135;-15
2021/03/23 18:49:08;;;;;;;258.85;230.60;;;21.10;45.20;;;;;;4336934;64;21630;-31
2021/03/23 18:54:09;;;;;;;245.75;216.75;;;21.10;45.20;;;;;;4349400;60;21205;-23
2021/03/23 18:59:10;;;;;;;251.07;223.40;;;21.10;45.10;;;;;;4368596;60;22222;-18
2021/03/23 19:04:11;;;;;;;249.27;221.98;;;21.10;45.10;;;;;;4343013;60;21102;-23
2021/03/23 19:09:12;;;;;;;241.63;214.70;;;21.10;45.00;;;;;;4349103;60;22342;-31
2021/03/23 19:14:14;;;;;;;242.45;215.85;;;21.10;45.00;;;;;;4336599;64;21083;-20
2021/03/23 19:19:15;;;;;;;238.68;211.68;;;21.00;44.90;;;;;;4337417;60;22307;-29
2021/03/23 19:24:16;;;;;;;238.52;212.20;;;21.00;44.90;;;;;;4366786;60;21083;-27
2021/03/23 19:29:17;;;;;;;240.95;213.18;;;21.00;44.90;;;;;;4341351;60;21088;-16
2021/03/23 19:34:17;;;;;;;233.57;202.87;;;21.00;44.80;;;;;;4361829;60;21084;-30
2021/03/23 19:39:18;;;;;;;243.50;216.73;;;21.00;44.90;;;;;;4370467;60;21130;-21
2021/03/23 19:44:20;;;;;;;231.32;204.18;;;21.00;44.80;;;;;;4351363;60;21514;-30
2021/03/23 19:49:20;;;;;;;228.25;203.05;;;21.00;44.70;;;;;;4352621;60;21099;-25
2021/03/23 19:54:21;;;;;;;232.20;201.57;;;21.00;44.70;;;;;;4371183;60;21611;-28
2021/03/23 19:59:22;;;;;;;227.62;200.27;;;21.00;44.70;;;;;;4364199;60;21115;-30
2021/03/23 20:04:23;;;;;;;219.27;190.70;;;21.00;44.40;;;;;;4348628;60;22464;-18
2021/03/23 20:09:24;;;;;;;227.93;202.77;;;20.90;44.50;;;;;;4351854;60;21142;-25
2021/03/23 20:14:26;;;;;;;223.13;198.10;;;20.90;44.50;;;;;;4337287;64;21136;-26
2021/03/23 20:19:27;;;;;;;212.43;185.98;;;20.90;44.40;;;;;;4341630;60;21075;-24
2021/03/23 20:24:30;;;;;;;213.80;186.32;;;20.90;44.40;;;;;;4364926;60;21132;-27
2021/03/23 20:29:31;;;;;;;210.57;183.30;;;20.90;44.40;;;;;;4336980;60;21637;-23
2021/03/23 20:34:32;;;;;;;207.95;179.57;;;20.90;44.40;;;;;;4348231;60;21154;-27
2021/03/23 20:39:32;;;;;;;212.82;187.32;;;20.90;44.40;;;;;;4363732;60;21102;-19
2021/03/23 20:44:33;;;;;;;203.80;179.45;;;20.90;44.30;;;;;;4376964;60;21103;-27
2021/03/23 20:49:34;;;;;;;208.25;178.57;;;20.90;45.00;;;;;;4336333;64;21083;-29
2021/03/23 20:54:35;;;;;;;202.82;177.80;;;20.90;44.30;;;;;;4357098;60;21152;-15
2021/03/23 20:59:36;;;;;;;198.95;172.75;;;20.90;44.30;;;;;;4349797;60;21095;-31
2021/03/23 21:04:37;;;;;;;195.52;166.60;;;20.90;44.20;;;;;;4336756;64;21131;-29
2021/03/23 21:09:42;;;;;;;191.85;166.77;;;20.80;44.20;;;;;;4336206;64;21590;-24
2021/03/23 21:14:43;;;;;;;193.07;165.25;;;20.80;44.70;;;;;;4348880;60;21067;-28
2021/03/23 21:19:44;;;;;;;184.90;156.87;;;20.80;44.10;;;;;;4344456;60;21123;-24
2021/03/23 21:24:45;;;;;;;187.62;159.00;;;20.80;44.00;;;;;;4338865;60;21538;-28
2021/03/23 21:29:46;;;;;;;185.43;155.32;;;20.80;44.00;;;;;;4349600;60;21187;-23
2021/03/23 21:34:47;;;;;;;178.38;153.40;;;20.80;44.00;;;;;;4344855;60;21565;-29
2021/03/23 21:39:49;;;;;;;179.05;150.25;;;20.80;44.00;;;;;;4349953;60;21199;-29
2021/03/23 21:44:50;;;;;;;175.15;148.40;;;20.80;43.90;;;;;;4349470;60;21581;-22
2021/03/23 21:49:51;;;;;;;173.38;146.48;;;20.80;43.90;;;;;;4348612;60;21160;-30
2021/03/23 21:54:54;;;;;;;175.20;150.32;;;20.80;43.90;;;;;;4360273;60;21615;-19
2021/03/23 21:59:54;;;;;;;162.30;140.32;;;20.80;43.90;;;;;;4368699;60;21641;-20
2021/03/23 22:04:56;;;;;;;169.07;144.40;;;20.80;43.80;;;;;;4364536;60;21200;-31
2021/03/23 22:09:57;;;;;;;163.57;140.00;;;20.80;43.80;;;;;;4372591;60;21164;-27
2021/03/23 22:14:57;;;;;;;166.50;141.45;;;20.80;43.80;;;;;;4337317;64;21131;-29
2021/03/23 22:19:58;;;;;;;161.62;138.45;;;20.70;43.70;;;;;;4343259;60;21265;-20
2021/03/23 22:24:59;;;;;;;155.87;132.65;;;20.70;43.70;;;;;;4349978;60;21875;-30
2021/03/23 22:30:00;;;;;;;157.85;132.90;;;20.70;43.80;;;;;;4391697;60;21183;-29
2021/03/23 22:35:01;;;;;;;153.95;131.65;;;20.70;43.70;;;;;;4351283;60;21099;-26
2021/03/23 22:40:04;;;;;;;153.48;132.07;;;20.70;43.70;;;;;;4358879;60;21175;-30
2021/03/23 22:45:06;;;;;;;149.68;129.93;;;20.70;43.70;;;;;;4370325;60;21146;-29
2021/03/23 22:50:08;;;;;;;149.18;128.82;;;20.70;43.60;;;;;;4368132;60;21064;-25
2021/03/23 22:55:11;;;;;;;138.73;120.43;;;20.70;43.60;;;;;;4366981;60;21051;-27
2021/03/23 23:00:51;;;;;;;137.68;119.78;;;20.70;43.60;;;;;;4342369;60;21123;-27
2021/03/23 23:05:55;;;;;;;138.25;119.80;;;20.70;43.60;;;;;;4342602;60;21091;-14
2021/03/23 23:11:03;;;;;;;141.25;122.47;;;20.70;43.50;;;;;;4372210;60;21082;-20
2021/03/23 23:16:31;;;;;;;132.02;115.82;;;20.70;43.50;;;;;;4342703;60;21081;-14
2021/03/23 23:21:41;;;;;;;130.82;111.00;;;20.70;43.60;;;;;;4356710;60;21188;-23
2021/03/23 23:26:44;;;;;;;132.75;116.07;;;20.60;43.40;;;;;;4359545;60;21136;-27
2021/03/23 23:31:48;;;;;;;133.82;115.43;;;20.70;43.50;;;;;;4370640;60;21076;-13
2021/03/23 23:36:51;;;;;;;127.28;111.25;;;20.70;43.50;;;;;;4364790;60;21064;-18
2021/03/23 23:41:53;;;;;;;125.18;108.03;;;20.70;44.10;;;;;;4394196;60;21163;-31
2021/03/23 23:46:56;;;;;;;124.72;107.70;;;20.70;43.50;;;;;;4336712;61;21189;-29
2021/03/23 23:51:57;;;;;;;120.93;106.45;;;20.60;43.40;;;;;;4346633;60;21399;-22
2021/03/23 23:56:58;;;;;;;117.15;103.30;;;20.70;43.40;;;;;;4336848;61;21076;-29
